Time;durP1;ratioP1;P1;durP2;ratioP2;P2;SDS_P1;SDS_P2;PMS_P1;PMS_P2;Temp;Humidity;BMP_temperature;BMP_pressure;BME280_temperature;BME280_humidity;BME280_pressure;Samples;Min_cycle;Max_cycle;Signal;HPM_P1;HPM_P2
2023/12/31 00:01:54;;;;;;;0.50;0.50;;;;;;;6.03;84.13;97303.75;5006659;28;20140;-70
2023/12/31 00:04:22;;;;;;;0.50;0.50;;;;;;;6.00;84.16;97309.91;5006325;28;20089;-70
2023/12/31 00:06:49;;;;;;;0.50;0.50;;;;;;;6.02;83.91;97307.66;5006848;28;20058;-70
2023/12/31 00:09:16;;;;;;;0.50;0.50;;;;;;;5.72;83.69;97275.81;5021514;28;20049;-70
2023/12/31 00:11:43;;;;;;;0.50;0.50;;;;;;;5.94;84.17;97308.50;5006617;28;20587;-70
2023/12/31 00:14:10;;;;;;;0.50;0.50;;;;;;;5.90;83.80;97315.78;5006910;28;20053;-70
2023/12/31 00:16:39;;;;;;;0.50;0.50;;;;;;;5.90;83.64;97311.13;5006110;28;20085;-70
2023/12/31 00:19:15;;;;;;;0.50;0.50;;;;;;;5.84;83.67;97308.88;5006677;28;20064;-70
2023/12/31 00:21:42;;;;;;;0.50;0.50;;;;;;;5.77;83.32;97303.88;5006275;28;20049;-69
2023/12/31 00:24:10;;;;;;;0.50;0.50;;;;;;;5.78;83.89;97315.69;5006692;28;20054;-70
2023/12/31 00:26:38;;;;;;;0.50;0.50;;;;;;;5.75;83.34;97314.41;5005857;28;20046;-69
2023/12/31 00:29:05;;;;;;;0.50;0.50;;;;;;;5.34;83.03;97255.81;5006770;28;20057;-69
2023/12/31 00:31:32;;;;;;;0.50;0.50;;;;;;;5.56;83.62;97315.97;5006113;28;20480;-70
2023/12/31 00:33:59;;;;;;;0.50;0.50;;;;;;;5.51;84.06;97327.16;5021393;28;20501;-69
2023/12/31 00:36:27;;;;;;;0.50;0.50;;;;;;;5.62;84.48;97325.63;5021150;28;20070;-70
2023/12/31 00:38:54;;;;;;;0.50;0.50;;;;;;;5.51;84.78;97327.97;5021080;28;20119;-70
2023/12/31 00:41:21;;;;;;;0.50;0.50;;;;;;;5.42;84.42;97323.66;5005879;28;20064;-70
2023/12/31 00:43:48;;;;;;;0.50;0.50;;;;;;;5.29;84.61;97324.66;5021125;28;20072;-70
2023/12/31 00:46:24;;;;;;;0.50;0.50;;;;;;;5.04;85.13;97284.41;5005437;28;20548;-70
2023/12/31 00:48:50;;;;;;;0.40;0.40;;;;;;;5.30;84.71;97323.53;5004715;28;20567;-70
2023/12/31 00:51:17;;;;;;;0.47;0.47;;;;;;;5.17;84.33;97330.06;5005278;28;20050;-69
2023/12/31 00:53:48;;;;;;;0.40;0.40;;;;;;;4.88;86.47;97329.97;5005710;28;20140;-70
2023/12/31 00:56:15;;;;;;;0.47;0.47;;;;;;;4.95;86.81;97327.53;5020893;28;20050;-70
2023/12/31 00:58:42;;;;;;;0.50;0.50;;;;;;;4.93;87.14;97324.31;5005657;28;20058;-69
2023/12/31 01:01:10;;;;;;;0.50;0.50;;;;;;;3.97;86.78;97190.44;5005397;28;20050;-70
2023/12/31 01:03:37;;;;;;;0.43;0.43;;;;;;;4.85;86.97;97322.41;5005290;28;20061;-69
2023/12/31 01:06:07;;;;;;;0.40;0.40;;;;;;;4.87;87.65;97317.38;5005415;28;20582;-69
2023/12/31 01:08:45;;;;;;;0.50;0.50;;;;;;;4.43;87.33;97256.31;5005597;28;20057;-70
2023/12/31 01:11:13;;;;;;;0.40;0.40;;;;;;;4.24;87.21;97233.13;5020401;28;20518;-69
2023/12/31 01:13:40;;;;;;;0.40;0.40;;;;;;;4.91;87.84;97323.81;5005920;28;20053;-70
2023/12/31 01:16:07;;;;;;;0.50;0.50;;;;;;;4.97;87.53;97319.75;5004082;28;20215;-70
2023/12/31 01:18:34;;;;;;;0.50;0.50;;;;;;;4.30;87.68;97227.13;5020482;28;20050;-70
2023/12/31 01:21:01;;;;;;;0.45;0.45;;;;;;;4.55;87.64;97261.94;5005320;28;20119;-69
2023/12/31 01:23:31;;;;;;;0.40;0.40;;;;;;;4.93;88.00;97313.34;5004129;28;20137;-70
2023/12/31 01:25:58;;;;;;;0.45;0.45;;;;;;;4.79;88.10;97315.47;5003588;28;20622;-70
2023/12/31 01:28:25;;;;;;;0.50;0.50;;;;;;;4.65;88.11;97275.31;5020176;28;20058;-69
2023/12/31 01:30:52;;;;;;;0.50;0.50;;;;;;;4.76;88.54;97310.63;5005335;28;20049;-69
2023/12/31 01:33:19;;;;;;;0.40;0.40;;;;;;;4.73;89.51;97294.84;5005175;28;20049;-69
2023/12/31 01:35:46;;;;;;;0.50;0.50;;;;;;;4.76;89.55;97294.19;5005054;28;20077;-69
2023/12/31 01:38:13;;;;;;;0.50;0.50;;;;;;;4.30;89.61;97242.81;5004371;28;20060;-70
2023/12/31 01:40:40;;;;;;;0.43;0.43;;;;;;;4.71;88.95;97319.03;5020151;28;20049;-70
2023/12/31 01:43:06;;;;;;;0.50;0.50;;;;;;;4.66;88.79;97300.81;5004959;28;20064;-69
2023/12/31 01:45:33;;;;;;;0.40;0.40;;;;;;;4.41;89.00;97266.03;5004780;28;20504;-70
2023/12/31 01:48:00;;;;;;;0.50;0.50;;;;;;;4.53;88.41;97280.66;5004889;28;20054;-70
2023/12/31 01:50:27;;;;;;;0.40;0.40;;;;;;;4.61;88.43;97304.53;5019431;28;20060;-70
2023/12/31 01:52:55;;;;;;;0.40;0.40;;;;;;;4.53;88.90;97308.09;5014860;28;20060;-69
2023/12/31 01:55:22;;;;;;;0.40;0.40;;;;;;;4.57;89.05;97302.75;5004611;28;20050;-69
2023/12/31 01:57:50;;;;;;;0.50;0.50;;;;;;;4.63;88.31;97302.25;5004681;28;20064;-70
2023/12/31 02:00:19;;;;;;;0.50;0.50;;;;;;;4.61;88.36;97304.53;5004608;28;20076;-70
2023/12/31 02:02:47;;;;;;;0.40;0.40;;;;;;;4.60;88.72;97308.41;5019370;28;20057;-69
2023/12/31 02:05:15;;;;;;;0.50;0.50;;;;;;;4.41;88.41;97291.47;5019641;28;20060;-69
2023/12/31 02:07:42;;;;;;;0.50;0.50;;;;;;;3.61;88.76;97187.22;5004800;28;20753;-70
2023/12/31 02:10:09;;;;;;;0.40;0.40;;;;;;;4.19;89.95;97286.19;5004537;28;20140;-69
2023/12/31 02:12:37;;;;;;;0.40;0.40;;;;;;;3.45;89.29;97199.78;5003139;28;20504;-70
2023/12/31 02:15:04;;;;;;;0.40;0.40;;;;;;;4.16;89.96;97318.91;5003356;28;20054;-70
2023/12/31 02:17:31;;;;;;;0.40;0.40;;;;;;;4.03;89.43;97319.88;5019375;28;20488;-69
2023/12/31 02:19:57;;;;;;;0.40;0.40;;;;;;;3.86;90.09;97315.19;5005013;28;20053;-70
2023/12/31 02:22:25;;;;;;;0.40;0.40;;;;;;;3.91;89.14;97316.97;5019398;28;20436;-69
2023/12/31 02:24:55;;;;;;;0.40;0.40;;;;;;;3.41;90.24;97275.50;4997014;28;20061;-69
2023/12/31 02:27:22;;;;;;;0.38;0.38;;;;;;;3.69;90.38;97317.91;5015978;28;20054;-69
2023/12/31 02:29:49;;;;;;;0.40;0.40;;;;;;;3.53;90.02;97310.44;5019425;28;20065;-69
2023/12/31 02:32:16;;;;;;;0.40;0.40;;;;;;;3.25;90.80;97277.03;5019134;28;20446;-69
2023/12/31 02:34:45;;;;;;;0.40;0.40;;;;;;;3.39;91.14;97299.63;5004640;28;20050;-69
2023/12/31 02:37:12;;;;;;;0.38;0.38;;;;;;;3.42;91.25;97307.19;5004422;28;20108;-70
2023/12/31 02:39:39;;;;;;;0.40;0.40;;;;;;;3.38;92.44;97319.94;5004487;28;20054;-70
2023/12/31 02:42:06;;;;;;;0.40;0.40;;;;;;;3.47;92.55;97322.66;5018820;28;20570;-69
2023/12/31 02:44:33;;;;;;;0.40;0.40;;;;;;;3.41;92.57;97302.88;5004388;28;20429;-70
2023/12/31 02:46:59;;;;;;;0.40;0.40;;;;;;;3.29;92.32;97272.53;5004103;28;20065;-70
2023/12/31 02:49:26;;;;;;;0.40;0.40;;;;;;;3.23;92.51;97268.34;5019706;28;20050;-70
2023/12/31 02:51:53;;;;;;;0.40;0.40;;;;;;;3.56;92.49;97316.09;5020075;28;20046;-71
2023/12/31 02:54:20;;;;;;;0.40;0.40;;;;;;;3.59;92.47;97326.41;5008713;28;20495;-69
2023/12/31 02:56:47;;;;;;;0.40;0.40;;;;;;;3.66;92.88;97315.00;5007653;28;20060;-70
2023/12/31 02:59:13;;;;;;;0.40;0.40;;;;;;;3.68;93.35;97310.81;5008411;28;20064;-70
2023/12/31 03:01:40;;;;;;;0.40;0.40;;;;;;;3.01;93.93;97221.91;5022732;28;20532;-70
2023/12/31 03:04:07;;;;;;;0.40;0.40;;;;;;;3.59;95.03;97318.19;5007840;28;20061;-69
2023/12/31 03:06:37;;;;;;;0.40;0.40;;;;;;;3.28;94.59;97270.94;5022730;28;20057;-70
2023/12/31 03:09:06;;;;;;;0.40;0.40;;;;;;;3.67;95.17;97322.88;5008204;28;20050;-69
2023/12/31 03:11:36;;;;;;;0.40;0.40;;;;;;;3.35;95.23;97256.78;5022902;28;20697;-70
2023/12/31 03:14:03;;;;;;;0.40;0.40;;;;;;;3.49;95.79;97276.63;5006678;28;20088;-69
2023/12/31 03:16:30;;;;;;;0.40;0.40;;;;;;;3.73;95.74;97310.66;5007770;28;20124;-69
2023/12/31 03:18:56;;;;;;;0.40;0.40;;;;;;;3.76;95.72;97329.19;5008101;28;20144;-69
2023/12/31 03:21:23;;;;;;;0.40;0.40;;;;;;;2.96;95.19;97178.28;5007395;28;20448;-70
2023/12/31 03:23:50;;;;;;;0.40;0.40;;;;;;;2.64;95.14;97145.88;5007344;28;20544;-69
2023/12/31 03:26:17;;;;;;;0.40;0.40;;;;;;;3.78;94.59;97318.72;5007187;28;20112;-70
2023/12/31 03:28:44;;;;;;;0.40;0.40;;;;;;;3.53;93.33;97294.84;5007684;28;20058;-70
2023/12/31 03:31:11;;;;;;;0.50;0.50;;;;;;;3.69;93.21;97320.66;5007234;28;20049;-69
2023/12/31 03:33:37;;;;;;;0.40;0.40;;;;;;;3.31;91.67;97269.47;5007586;28;20052;-70
2023/12/31 03:36:06;;;;;;;0.40;0.40;;;;;;;3.65;90.90;97330.59;5007299;28;20045;-69
2023/12/31 03:38:32;;;;;;;0.40;0.40;;;;;;;3.58;90.62;97327.53;5007614;28;20136;-70
2023/12/31 03:40:59;;;;;;;0.40;0.40;;;;;;;3.41;91.45;97330.25;5007006;28;20539;-70
2023/12/31 03:43:26;;;;;;;0.40;0.40;;;;;;;3.45;92.06;97336.69;5007674;28;20085;-70
2023/12/31 03:45:53;;;;;;;0.40;0.40;;;;;;;2.93;92.86;97248.13;5007121;28;20053;-70
2023/12/31 03:48:19;;;;;;;0.40;0.40;;;;;;;3.49;93.82;97326.72;5006851;28;20054;-70
2023/12/31 03:50:46;;;;;;;0.40;0.40;;;;;;;3.47;93.75;97328.16;5022182;28;20077;-70
2023/12/31 03:53:14;;;;;;;0.40;0.40;;;;;;;2.27;94.79;97181.88;5007386;28;20093;-70
2023/12/31 03:55:41;;;;;;;0.40;0.40;;;;;;;2.85;95.22;97259.03;5007124;28;20052;-70
2023/12/31 03:58:08;;;;;;;0.40;0.40;;;;;;;3.57;95.12;97334.16;5006855;28;20136;-69
2023/12/31 04:00:35;;;;;;;0.38;0.38;;;;;;;3.56;94.15;97343.47;5006025;28;20132;-70
2023/12/31 04:03:03;;;;;;;0.40;0.40;;;;;;;3.59;93.67;97342.84;5006672;28;20053;-69
2023/12/31 04:05:31;;;;;;;0.40;0.40;;;;;;;3.37;92.81;97321.03;5006512;28;20168;-70
2023/12/31 04:07:58;;;;;;;0.40;0.40;;;;;;;3.56;92.25;97348.97;5006447;28;20568;-70
2023/12/31 04:10:25;;;;;;;0.35;0.35;;;;;;;3.24;92.16;97335.63;5006520;28;20128;-69
2023/12/31 04:12:52;;;;;;;0.40;0.40;;;;;;;3.49;92.84;97353.28;5006664;28;20049;-70
2023/12/31 04:15:18;;;;;;;0.40;0.40;;;;;;;3.55;92.51;97366.53;4997274;28;20055;-69
2023/12/31 04:17:45;;;;;;;0.40;0.40;;;;;;;3.53;93.54;97354.25;4986968;28;20112;-70
2023/12/31 04:20:12;;;;;;;0.40;0.40;;;;;;;3.56;94.58;97359.91;4987071;28;20336;-70
2023/12/31 04:22:39;;;;;;;0.40;0.40;;;;;;;3.51;94.96;97321.72;4985354;28;20050;-70
2023/12/31 04:25:07;;;;;;;0.40;0.40;;;;;;;3.72;95.50;97341.09;5001454;28;20205;-69
2023/12/31 04:27:38;;;;;;;0.40;0.40;;;;;;;2.80;93.91;97177.94;4986813;28;20284;-70
2023/12/31 04:30:06;;;;;;;0.40;0.40;;;;;;;3.54;94.10;97307.38;4986896;28;20144;-70
2023/12/31 04:32:33;;;;;;;0.40;0.40;;;;;;;3.68;93.08;97308.09;4986727;28;20132;-69
2023/12/31 04:35:00;;;;;;;0.40;0.40;;;;;;;3.24;92.07;97234.38;4986941;28;20066;-69
2023/12/31 04:37:27;;;;;;;0.40;0.40;;;;;;;3.53;92.45;97300.31;4986460;28;20133;-69
2023/12/31 04:39:54;;;;;;;0.47;0.47;;;;;;;3.95;93.84;97362.56;4986549;28;20066;-70
2023/12/31 04:42:20;;;;;;;0.40;0.40;;;;;;;3.72;93.77;97322.75;4984737;28;20052;-69
2023/12/31 04:44:47;;;;;;;0.40;0.40;;;;;;;3.64;91.35;97301.63;4986490;28;20069;-69
2023/12/31 04:47:14;;;;;;;0.40;0.40;;;;;;;3.96;89.17;97358.72;4986020;28;20062;-69
2023/12/31 04:49:42;;;;;;;0.50;0.50;;;;;;;3.78;89.93;97362.56;4987027;28;20414;-69
2023/12/31 04:52:09;;;;;;;0.40;0.40;;;;;;;3.70;91.30;97359.81;4989797;28;20050;-70
2023/12/31 04:54:38;;;;;;;0.40;0.40;;;;;;;3.56;92.64;97318.84;5020852;28;20136;-69
2023/12/31 04:57:05;;;;;;;0.40;0.40;;;;;;;3.85;93.12;97379.34;5003708;28;20057;-69
2023/12/31 04:59:31;;;;;;;0.47;0.47;;;;;;;3.95;92.71;97346.13;5020775;28;20358;-70
2023/12/31 05:01:59;;;;;;;0.50;0.50;;;;;;;4.03;92.87;97348.09;5005407;28;20058;-69
2023/12/31 05:04:25;;;;;;;0.40;0.40;;;;;;;3.89;92.66;97298.09;5005138;28;20093;-70
2023/12/31 05:06:52;;;;;;;0.40;0.40;;;;;;;4.11;93.18;97321.84;5005787;28;20054;-69
2023/12/31 05:09:19;;;;;;;0.40;0.40;;;;;;;4.23;93.17;97336.50;5006021;28;20050;-70
2023/12/31 05:11:46;;;;;;;0.40;0.40;;;;;;;4.40;93.09;97341.97;5019880;28;20062;-70
2023/12/31 05:14:13;;;;;;;0.40;0.40;;;;;;;4.47;92.55;97336.81;5005326;28;20492;-68
2023/12/31 05:16:39;;;;;;;0.40;0.40;;;;;;;4.29;92.55;97313.28;5005279;28;20050;-69
2023/12/31 05:19:06;;;;;;;0.40;0.40;;;;;;;4.56;92.17;97334.88;5004173;28;20057;-69
2023/12/31 05:21:34;;;;;;;0.40;0.40;;;;;;;4.62;91.39;97333.56;5020255;28;20070;-69
2023/12/31 05:24:00;;;;;;;0.40;0.40;;;;;;;4.57;90.98;97336.47;5005701;28;20108;-69
2023/12/31 05:26:27;;;;;;;0.40;0.40;;;;;;;4.23;91.72;97276.19;5004721;28;20626;-69
2023/12/31 05:28:54;;;;;;;0.40;0.40;;;;;;;4.04;91.45;97240.09;5005509;28;20061;-70
2023/12/31 05:31:21;;;;;;;0.40;0.40;;;;;;;4.75;91.79;97330.97;5004860;28;20597;-69
2023/12/31 05:33:48;;;;;;;0.40;0.40;;;;;;;4.68;92.41;97341.63;5020195;28;20049;-68
2023/12/31 05:36:15;;;;;;;0.40;0.40;;;;;;;4.72;92.87;97345.34;5005178;28;20046;-69
2023/12/31 05:38:41;;;;;;;0.40;0.40;;;;;;;3.71;92.28;97208.84;5005342;28;20100;-70
2023/12/31 05:41:09;;;;;;;0.40;0.40;;;;;;;4.53;91.38;97341.00;5004845;28;20056;-69
2023/12/31 05:43:35;;;;;;;0.50;0.50;;;;;;;4.51;90.87;97359.72;5004933;28;20054;-70
2023/12/31 05:46:02;;;;;;;0.45;0.45;;;;;;;4.05;90.29;97302.00;5004884;28;20054;-68
2023/12/31 05:48:29;;;;;;;0.40;0.40;;;;;;;4.24;90.26;97348.25;5004983;28;20516;-68
2023/12/31 05:50:56;;;;;;;0.40;0.40;;;;;;;4.15;90.14;97361.97;5004570;28;20449;-68
2023/12/31 05:53:23;;;;;;;0.40;0.40;;;;;;;3.15;89.87;97217.13;5004735;28;20060;-70
2023/12/31 05:55:50;;;;;;;0.40;0.40;;;;;;;4.04;90.57;97370.81;5004888;28;20052;-68
2023/12/31 05:58:17;;;;;;;0.40;0.40;;;;;;;4.13;90.62;97369.72;5004511;28;20428;-68
2023/12/31 06:00:43;;;;;;;0.40;0.40;;;;;;;4.13;90.99;97369.72;5018698;28;20061;-68
2023/12/31 06:03:10;;;;;;;0.40;0.40;;;;;;;4.22;90.70;97372.47;5003202;28;20058;-68
2023/12/31 06:05:37;;;;;;;0.50;0.50;;;;;;;4.18;90.69;97372.31;5003244;28;20042;-69
2023/12/31 06:08:04;;;;;;;0.40;0.40;;;;;;;4.26;90.36;97374.25;5003264;28;20141;-68
2023/12/31 06:10:31;;;;;;;0.40;0.40;;;;;;;4.35;90.35;97366.81;5001706;28;20053;-69
2023/12/31 06:12:58;;;;;;;0.40;0.40;;;;;;;4.34;90.62;97365.22;5003617;28;20128;-69
2023/12/31 06:15:25;;;;;;;0.40;0.40;;;;;;;4.32;91.49;97367.47;5019368;28;20552;-68
2023/12/31 06:17:51;;;;;;;0.47;0.47;;;;;;;3.94;90.45;97284.25;5002691;28;20050;-68
2023/12/31 06:20:19;;;;;;;0.50;0.50;;;;;;;4.54;90.37;97380.19;5004394;28;20046;-68
2023/12/31 06:22:46;;;;;;;0.40;0.40;;;;;;;3.65;90.75;97251.19;5004422;28;20050;-68
2023/12/31 06:25:13;;;;;;;0.50;0.50;;;;;;;4.51;91.57;97376.19;5004334;28;20103;-68
2023/12/31 06:27:40;;;;;;;0.40;0.40;;;;;;;4.23;91.40;97319.25;5004163;28;20127;-68
2023/12/31 06:30:07;;;;;;;0.40;0.40;;;;;;;4.65;90.60;97376.81;5019523;28;20068;-68
2023/12/31 06:32:34;;;;;;;0.40;0.40;;;;;;;2.12;90.55;96966.47;5004448;28;20061;-68
2023/12/31 06:35:03;;;;;;;0.50;0.50;;;;;;;4.68;91.29;97375.34;5004020;28;20108;-68
2023/12/31 06:37:29;;;;;;;0.40;0.40;;;;;;;4.83;91.68;97387.75;5018554;28;20077;-69
2023/12/31 06:39:56;;;;;;;0.40;0.40;;;;;;;4.87;90.88;97377.78;5004140;28;20050;-68
2023/12/31 06:42:23;;;;;;;0.40;0.40;;;;;;;5.01;91.08;97381.13;5004003;28;20087;-68
2023/12/31 06:44:50;;;;;;;0.50;0.50;;;;;;;4.83;89.57;97327.41;5004468;28;20057;-69
2023/12/31 06:47:17;;;;;;;0.50;0.50;;;;;;;4.62;89.70;97292.44;5003581;28;20050;-68
2023/12/31 06:49:44;;;;;;;0.50;0.50;;;;;;;5.08;88.93;97373.19;5003155;28;20054;-69
2023/12/31 06:52:11;;;;;;;0.50;0.50;;;;;;;5.06;88.69;97386.44;5003772;28;20493;-69
2023/12/31 06:54:38;;;;;;;0.40;0.40;;;;;;;5.10;87.83;97387.41;5019261;28;20491;-69
2023/12/31 06:57:04;;;;;;;0.50;0.50;;;;;;;5.05;88.30;97407.59;5003692;28;20050;-69
2023/12/31 06:59:35;;;;;;;0.40;0.40;;;;;;;4.99;87.95;97397.94;5004042;28;20585;-69
2023/12/31 07:02:02;;;;;;;0.50;0.50;;;;;;;5.16;87.16;97397.06;5003334;28;20563;-69
2023/12/31 07:04:29;;;;;;;0.47;0.47;;;;;;;5.23;86.95;97395.44;5003905;28;20577;-69
2023/12/31 07:06:56;;;;;;;0.50;0.50;;;;;;;5.30;86.28;97397.66;5003632;28;20089;-69
2023/12/31 07:09:23;;;;;;;0.43;0.43;;;;;;;5.06;86.26;97348.03;5004135;28;20153;-69
2023/12/31 07:11:50;;;;;;;0.40;0.40;;;;;;;5.42;86.18;97412.34;5002468;28;20081;-69
2023/12/31 07:14:17;;;;;;;0.50;0.50;;;;;;;5.51;87.15;97398.59;5003618;28;20096;-69
2023/12/31 07:16:44;;;;;;;0.50;0.50;;;;;;;5.69;84.67;97411.13;5003778;28;20613;-69
2023/12/31 07:19:11;;;;;;;0.60;0.60;;;;;;;5.69;84.44;97405.63;5004150;28;20401;-70
2023/12/31 07:21:38;;;;;;;0.50;0.50;;;;;;;5.75;84.74;97404.31;5003957;28;20054;-70
2023/12/31 07:24:05;;;;;;;0.50;0.50;;;;;;;5.61;84.95;97410.00;5004184;28;20046;-70
2023/12/31 07:26:32;;;;;;;0.50;0.50;;;;;;;5.49;84.86;97367.88;5003516;28;20088;-69
2023/12/31 07:28:59;;;;;;;0.50;0.50;;;;;;;5.62;84.77;97377.84;5003863;28;20058;-69
2023/12/31 07:31:37;;;;;;;0.50;0.50;;;;;;;5.19;84.45;97314.84;4992608;28;20144;-69
2023/12/31 07:34:06;;;;;;;0.50;0.50;;;;;;;5.81;85.44;97419.47;4984200;28;20077;-70
2023/12/31 07:36:34;;;;;;;0.40;0.40;;;;;;;5.88;84.87;97419.81;4986323;28;20484;-69
2023/12/31 07:39:01;;;;;;;0.50;0.50;;;;;;;5.67;84.46;97381.22;4987818;28;20058;-69
2023/12/31 07:41:37;;;;;;;0.50;0.50;;;;;;;5.94;84.77;97424.75;4987096;28;20050;-70
2023/12/31 07:44:04;;;;;;;0.50;0.50;;;;;;;5.93;84.90;97416.84;4987671;28;20120;-69
2023/12/31 07:46:31;;;;;;;0.50;0.50;;;;;;;5.35;84.68;97342.56;4987390;28;20521;-69
2023/12/31 07:48:58;;;;;;;0.55;0.55;;;;;;;5.93;84.77;97422.34;4987233;28;20187;-69
2023/12/31 07:51:26;;;;;;;0.50;0.50;;;;;;;5.50;84.79;97358.53;4987111;28;20057;-69
2023/12/31 07:53:53;;;;;;;0.50;0.50;;;;;;;5.49;85.10;97367.88;5003415;28;20516;-69
2023/12/31 07:56:20;;;;;;;0.60;0.60;;;;;;;5.82;85.60;97416.41;5007102;28;20046;-69
2023/12/31 07:58:47;;;;;;;0.50;0.50;;;;;;;5.78;86.40;97425.63;5006607;28;20054;-69
2023/12/31 08:01:14;;;;;;;0.50;0.50;;;;;;;5.74;87.43;97433.72;5006835;28;20556;-69
2023/12/31 08:03:41;;;;;;;0.50;0.50;;;;;;;5.03;87.26;97354.13;5006448;28;20552;-69
2023/12/31 08:06:09;;;;;;;0.50;0.50;;;;;;;5.96;87.89;97433.50;5006895;28;20052;-69
2023/12/31 08:08:37;;;;;;;0.50;0.50;;;;;;;6.25;88.44;97451.94;5021734;28;20145;-69
2023/12/31 08:11:04;;;;;;;0.50;0.50;;;;;;;6.56;88.70;97441.38;5006747;28;20129;-69
2023/12/31 08:13:31;;;;;;;0.55;0.55;;;;;;;6.90;89.44;97435.63;5006550;28;20054;-69
2023/12/31 08:15:59;;;;;;;0.60;0.60;;;;;;;6.66;88.17;97380.44;5006350;28;20058;-69
2023/12/31 08:18:26;;;;;;;0.60;0.60;;;;;;;6.42;86.43;97325.28;5006381;28;20076;-69
2023/12/31 08:20:53;;;;;;;0.60;0.60;;;;;;;7.31;85.92;97435.56;5006365;28;20063;-69
2023/12/31 08:23:20;;;;;;;0.60;0.60;;;;;;;7.46;84.67;97437.66;5021109;28;20054;-69
2023/12/31 08:25:49;;;;;;;0.60;0.60;;;;;;;7.67;83.30;97434.81;5006562;28;20125;-69
2023/12/31 08:28:17;;;;;;;0.60;0.60;;;;;;;7.94;81.60;97436.94;5006506;28;20561;-70
2023/12/31 08:30:44;;;;;;;0.60;0.60;;;;;;;8.14;80.71;97438.00;5021501;28;20534;-70
2023/12/31 08:33:11;;;;;;;0.73;0.73;;;;;;;8.22;79.36;97442.59;5005916;28;20252;-69
2023/12/31 08:35:39;;;;;;;0.70;0.70;;;;;;;8.41;78.23;97434.56;5005749;28;20511;-69
2023/12/31 08:38:06;;;;;;;0.70;0.70;;;;;;;8.46;78.62;97435.13;5006027;28;20514;-68
2023/12/31 08:40:41;;;;;;;0.70;0.70;;;;;;;8.74;78.62;97451.75;5006185;28;20061;-70
2023/12/31 08:43:08;;;;;;;0.70;0.70;;;;;;;9.05;76.99;97433.38;5006141;28;20052;-70
2023/12/31 08:45:39;;;;;;;0.73;0.73;;;;;;;9.28;76.55;97430.06;5021184;28;20050;-70
2023/12/31 08:48:14;;;;;;;0.80;0.80;;;;;;;9.31;76.04;97410.00;5005595;28;20146;-69
2023/12/31 08:50:49;;;;;;;0.80;0.80;;;;;;;9.69;75.36;97426.84;5020007;28;20507;-69
2023/12/31 08:53:19;;;;;;;0.77;0.77;;;;;;;9.97;74.25;97431.16;5005601;28;20397;-70
2023/12/31 08:55:47;;;;;;;0.85;0.85;;;;;;;10.10;73.51;97418.84;5005981;28;20050;-69
2023/12/31 08:58:21;;;;;;;0.80;0.80;;;;;;;10.28;73.49;97409.00;5005490;28;20057;-69
2023/12/31 09:01:02;;;;;;;0.80;0.80;;;;;;;10.50;73.19;97411.13;5003893;28;20448;-69
2023/12/31 09:03:30;;;;;;;0.80;0.80;;;;;;;10.68;71.54;97411.53;5020203;28;20053;-69
2023/12/31 09:05:58;;;;;;;0.90;0.90;;;;;;;10.87;71.07;97413.50;5005501;28;20057;-69
2023/12/31 09:08:25;;;;;;;0.80;0.80;;;;;;;10.92;69.35;97402.13;5004199;28;20053;-69
2023/12/31 09:10:54;;;;;;;0.90;0.90;;;;;;;11.25;69.04;97397.69;5005915;28;20053;-69
2023/12/31 09:13:25;;;;;;;0.98;0.98;;;;;;;11.57;68.71;97392.75;5005872;28;20065;-70
2023/12/31 09:15:55;;;;;;;0.95;0.95;;;;;;;11.82;66.46;97396.81;5005614;28;20592;-69
2023/12/31 09:18:23;;;;;;;0.90;0.90;;;;;;;11.62;64.78;97323.06;5005645;28;20061;-69
2023/12/31 09:20:50;;;;;;;0.90;0.90;;;;;;;12.06;64.42;97365.91;5005242;28;20148;-69
2023/12/31 09:23:17;;;;;;;0.90;0.90;;;;;;;12.38;63.54;97383.84;5005136;28;20057;-70
2023/12/31 09:25:45;;;;;;;1.00;1.00;;;;;;;12.20;60.88;97321.69;5005136;28;20549;-70
2023/12/31 09:28:12;;;;;;;1.05;1.05;;;;;;;12.46;60.70;97335.56;5020135;28;20498;-70
2023/12/31 09:30:39;;;;;;;1.10;1.10;;;;;;;12.83;60.11;97369.84;5005393;28;20049;-70
2023/12/31 09:33:06;;;;;;;1.10;1.10;;;;;;;13.04;59.53;97361.78;5005041;28;20065;-69
2023/12/31 09:35:34;;;;;;;1.00;1.00;;;;;;;13.11;59.08;97361.06;5005140;28;20054;-70
2023/12/31 09:38:02;;;;;;;1.02;1.02;;;;;;;12.91;59.30;97293.69;5004770;28;20495;-70
2023/12/31 09:40:29;;;;;;;1.02;1.02;;;;;;;12.85;58.57;97306.28;5004898;28;20133;-70
2023/12/31 09:42:56;;;;;;;1.10;1.10;;;;;;;13.45;57.97;97326.50;5004964;28;20430;-70
2023/12/31 09:45:24;;;;;;;1.20;1.20;;;;;;;13.68;57.11;97347.41;4996173;28;20088;-70
2023/12/31 09:47:53;;;;;;;1.10;1.10;;;;;;;13.59;57.80;97294.00;4984950;28;20062;-70
2023/12/31 09:50:22;;;;;;;1.10;1.10;;;;;;;13.59;57.14;97338.56;4985173;28;20082;-69
2023/12/31 09:52:50;;;;;;;1.20;1.20;;;;;;;13.68;57.14;97336.28;5003941;28;20049;-65
2023/12/31 09:55:18;;;;;;;1.10;1.10;;;;;;;11.65;56.49;97011.63;5019475;28;20053;-69
2023/12/31 09:57:47;;;;;;;1.20;1.20;;;;;;;13.47;56.33;97229.50;5004346;28;20053;-70
2023/12/31 10:00:15;;;;;;;1.20;1.20;;;;;;;13.86;56.18;97257.66;5004328;28;20440;-69
2023/12/31 10:02:45;;;;;;;1.15;1.15;;;;;;;14.44;55.24;97319.78;5004309;28;20131;-70
2023/12/31 10:05:15;;;;;;;1.20;1.20;;;;;;;14.35;54.87;97319.34;5004994;28;20057;-68
2023/12/31 10:07:44;;;;;;;1.30;1.30;;;;;;;14.36;54.62;97315.34;5004030;28;20058;-70
2023/12/31 10:10:14;;;;;;;1.20;1.20;;;;;;;12.66;55.31;97127.81;5004275;28;20144;-69
2023/12/31 10:12:41;;;;;;;1.15;1.15;;;;;;;13.72;54.34;97282.63;5019706;28;20046;-69
2023/12/31 10:15:08;;;;;;;1.20;1.20;;;;;;;14.19;53.75;97299.28;5004423;28;20046;-70
2023/12/31 10:17:37;;;;;;;1.20;1.20;;;;;;;14.35;53.82;97308.19;5004205;28;20049;-69
2023/12/31 10:20:07;;;;;;;1.17;1.17;;;;;;;14.00;53.63;97296.75;5004823;28;20358;-69
2023/12/31 10:22:36;;;;;;;1.20;1.20;;;;;;;13.76;53.97;97302.91;5004419;28;20053;-69
2023/12/31 10:25:24;;;;;;;1.13;1.13;;;;;;;13.31;54.45;97282.63;5003447;28;20125;-69
2023/12/31 10:27:51;;;;;;;1.00;1.00;;;;;;;12.14;55.08;97134.34;5004313;28;20057;-69
2023/12/31 10:30:19;;;;;;;1.00;1.00;;;;;;;13.03;55.24;97289.84;5004498;28;20057;-69
2023/12/31 10:32:46;;;;;;;0.90;0.90;;;;;;;13.12;55.86;97279.25;5019157;28;20046;-69
2023/12/31 10:35:21;;;;;;;1.00;1.00;;;;;;;12.48;55.27;97194.28;5004006;28;20065;-69
2023/12/31 10:38:01;;;;;;;1.10;1.10;;;;;;;12.20;55.92;97133.63;5004593;28;20062;-69
2023/12/31 10:40:28;;;;;;;1.00;1.00;;;;;;;13.24;55.53;97221.38;5003998;28;20560;-69
2023/12/31 10:42:56;;;;;;;1.10;1.10;;;;;;;13.84;54.43;97265.59;5002650;28;20085;-69
2023/12/31 10:45:23;;;;;;;1.00;1.00;;;;;;;13.78;53.34;97267.94;5003625;28;20057;-70
2023/12/31 10:47:53;;;;;;;1.10;1.10;;;;;;;12.95;54.88;97230.56;5003793;28;20527;-70
2023/12/31 10:50:25;;;;;;;1.00;1.00;;;;;;;13.25;55.06;97284.16;5002812;28;20058;-69
2023/12/31 10:52:53;;;;;;;1.10;1.10;;;;;;;12.99;55.05;97213.91;5018776;28;20060;-69
2023/12/31 10:55:21;;;;;;;1.10;1.10;;;;;;;13.44;55.09;97244.19;5004549;28;20345;-69
2023/12/31 10:57:49;;;;;;;1.10;1.10;;;;;;;13.53;55.46;97248.25;5004385;28;20484;-69
2023/12/31 11:00:19;;;;;;;1.13;1.13;;;;;;;13.49;55.41;97232.69;5004354;28;20076;-69
2023/12/31 11:02:47;;;;;;;1.20;1.20;;;;;;;13.45;55.55;97238.22;5003779;28;20555;-69
2023/12/31 11:05:15;;;;;;;1.10;1.10;;;;;;;13.36;55.50;97223.84;5004096;28;20061;-69
2023/12/31 11:07:44;;;;;;;1.10;1.10;;;;;;;13.37;55.50;97214.31;5018999;28;20519;-69
2023/12/31 11:10:12;;;;;;;1.23;1.23;;;;;;;13.17;55.80;97215.72;5004128;28;20707;-69
2023/12/31 11:12:48;;;;;;;1.00;1.00;;;;;;;13.45;55.79;97199.28;5007891;28;20127;-69
2023/12/31 11:15:18;;;;;;;0.98;0.98;;;;;;;13.47;55.47;97208.03;5007505;28;20088;-69
2023/12/31 11:18:19;;;;;;;1.02;1.02;;;;;;;13.97;54.46;97200.06;5007318;28;20165;-69
2023/12/31 11:20:59;;;;;;;1.00;1.00;;;;;;;14.09;53.62;97199.72;5007654;28;20563;-69
2023/12/31 11:23:55;;;;;;;1.10;1.10;;;;;;;14.09;54.18;97202.50;5007438;28;20046;-69
2023/12/31 11:26:24;;;;;;;0.90;0.90;;;;;;;14.30;53.45;97194.31;5007585;28;20406;-69
2023/12/31 11:28:50;;;;;;;1.10;1.10;;;;;;;14.38;53.11;97162.50;5007730;28;20546;-70
2023/12/31 11:31:20;;;;;;;1.10;1.10;;;;;;;13.54;52.93;97113.47;5006864;28;20053;-69
2023/12/31 11:33:49;;;;;;;1.20;1.20;;;;;;;13.83;53.67;97191.59;4992197;28;20509;-69
2023/12/31 11:36:17;;;;;;;1.20;1.20;;;;;;;13.95;53.22;97191.28;5003093;28;20046;-69
2023/12/31 11:38:57;;;;;;;1.20;1.20;;;;;;;13.34;53.33;97114.91;4988075;28;20062;-69
2023/12/31 11:41:25;;;;;;;1.20;1.20;;;;;;;14.24;52.98;97184.69;4987625;28;20565;-70
2023/12/31 11:43:53;;;;;;;1.17;1.17;;;;;;;13.83;53.08;97125.56;4987811;28;20058;-69